Ohiowa, Nebraska
Current Conditions -  °F | °C
As of 6:55 PM on Wednesday 17 Dec 2014 (Local Time) from KHJH Reporting Station
Overcast Overcast  
Wind Chill: 20°   Ceiling: 7000
Heat Index: 28°   Visibility: 10mi
Dew Point: 18°   Wind: 7mph
Humidity: 66%   Direction: 100°E
Pressure: 30.21"   Gusts: NA
Location:  40.41°N, 97.45°W
Report Text: KHJH 180055Z AUTO 10006KT 10SM OVC070 M02/M08 A3021 RMK AO2 T10251080
Loading
Personal Weather Stations






























Interactive Weather Map New forecast layout! Learn more

10-Day Weather Forecast

Advertisements
Track Severe Weather on mobile